Time;durP1;ratioP1;P1;durP2;ratioP2;P2;SDS_P1;SDS_P2;PMS_P1;PMS_P2;Temp;Humidity;BMP_temperature;BMP_pressure;BME280_temperature;BME280_humidity;BME280_pressure;Samples;Min_cycle;Max_cycle;Signal;HPM_P1;HPM_P2
2021/11/13 00:03:39;;;;;;;10.10;8.70;;;17.40;55.90;;;;;;10405379;28;20205;-63
2021/11/13 00:09:01;;;;;;;11.00;8.37;;;17.30;55.90;;;;;;10382184;28;20215;-63
2021/11/13 00:14:23;;;;;;;11.23;8.67;;;17.30;56.10;;;;;;10403813;28;20241;-63
2021/11/13 00:19:47;;;;;;;10.73;9.03;;;17.30;56.00;;;;;;10408798;28;20568;-63
2021/11/13 00:25:10;;;;;;;10.70;8.97;;;17.30;55.60;;;;;;10411229;28;20663;-63
2021/11/13 00:30:32;;;;;;;10.03;8.37;;;17.30;55.50;;;;;;10411368;28;20190;-64
2021/11/13 00:35:55;;;;;;;9.10;7.53;;;17.30;55.70;;;;;;10409395;28;20221;-62
2021/11/13 00:41:19;;;;;;;10.13;8.10;;;17.30;55.70;;;;;;10410269;28;20690;-62
2021/11/13 00:46:42;;;;;;;10.23;7.73;;;17.30;55.70;;;;;;10410578;28;20213;-62
2021/11/13 00:52:06;;;;;;;8.60;7.60;;;17.30;55.60;;;;;;10407866;28;20549;-62
2021/11/13 00:57:29;;;;;;;8.60;7.63;;;17.30;55.60;;;;;;10408013;28;20224;-63
2021/11/13 01:02:52;;;;;;;8.90;7.40;;;17.20;55.60;;;;;;10409688;28;20197;-62
2021/11/13 01:08:15;;;;;;;9.70;8.07;;;17.20;55.70;;;;;;10410678;28;20228;-63
2021/11/13 01:13:37;;;;;;;9.50;7.73;;;17.20;55.70;;;;;;10408772;28;20209;-63
2021/11/13 01:18:59;;;;;;;8.93;7.20;;;17.20;55.70;;;;;;10389060;28;20284;-62
2021/11/13 01:24:23;;;;;;;8.67;7.73;;;17.20;55.70;;;;;;10400194;28;20675;-63
2021/11/13 01:29:46;;;;;;;9.30;7.40;;;17.20;55.70;;;;;;10454088;22;20221;-58
2021/11/13 01:35:10;;;;;;;8.97;7.30;;;17.20;55.50;;;;;;10451090;28;20595;-54
2021/11/13 01:40:35;;;;;;;8.17;6.83;;;17.20;55.40;;;;;;10490095;28;20677;-57
2021/11/13 01:45:57;;;;;;;8.97;7.57;;;17.20;55.50;;;;;;10489331;28;20563;-57
2021/11/13 01:51:21;;;;;;;8.37;6.80;;;17.20;55.50;;;;;;10491917;28;20203;-54
2021/11/13 01:56:47;;;;;;;7.80;6.70;;;17.20;55.60;;;;;;10459255;28;20223;-57
2021/11/13 02:02:09;;;;;;;8.33;6.50;;;17.20;55.80;;;;;;10486935;28;20200;-58
2021/11/13 02:07:32;;;;;;;9.93;7.90;;;17.20;55.90;;;;;;10491286;28;20249;-57
2021/11/13 02:12:56;;;;;;;8.10;7.03;;;17.20;55.40;;;;;;10474300;28;20216;-59
2021/11/13 02:18:19;;;;;;;7.90;6.60;;;17.20;55.40;;;;;;10469068;28;20212;-58
2021/11/13 02:23:44;;;;;;;7.77;6.97;;;17.30;55.30;;;;;;10492221;28;20192;-55
2021/11/13 02:29:06;;;;;;;8.23;7.27;;;17.30;54.90;;;;;;10491590;28;20334;-57
2021/11/13 02:34:28;;;;;;;8.97;6.80;;;17.30;54.90;;;;;;10490794;28;20312;-56
2021/11/13 02:39:52;;;;;;;6.90;6.20;;;17.30;55.00;;;;;;10481217;28;20205;-59
2021/11/13 02:45:16;;;;;;;10.37;7.13;;;17.30;55.20;;;;;;10449703;28;20221;-59
2021/11/13 02:50:39;;;;;;;8.43;6.77;;;17.30;54.90;;;;;;10448989;28;20205;-59
2021/11/13 02:56:04;;;;;;;8.13;7.03;;;17.30;54.90;;;;;;10467714;28;20220;-55
2021/11/13 03:01:27;;;;;;;7.83;6.37;;;17.30;54.90;;;;;;10496595;28;20196;-57
2021/11/13 03:06:49;;;;;;;7.57;6.43;;;17.30;55.00;;;;;;10474617;28;20209;-59
2021/11/13 03:12:12;;;;;;;8.30;6.70;;;17.30;54.90;;;;;;10455117;28;20193;-57
2021/11/13 03:17:36;;;;;;;6.77;5.60;;;17.30;54.90;;;;;;10480227;28;20215;-57
2021/11/13 03:23:00;;;;;;;7.00;5.93;;;17.30;55.10;;;;;;10489515;28;20184;-57
2021/11/13 03:28:26;;;;;;;8.57;6.53;;;17.30;55.20;;;;;;10495114;28;20231;-54
2021/11/13 03:33:48;;;;;;;7.30;6.40;;;17.30;55.10;;;;;;10455184;28;20589;-58
2021/11/13 03:39:10;;;;;;;6.70;6.00;;;17.30;55.00;;;;;;10455018;28;20200;-57
2021/11/13 03:44:33;;;;;;;6.83;6.00;;;17.20;55.00;;;;;;10454583;28;20217;-58
2021/11/13 03:49:56;;;;;;;7.07;6.37;;;17.20;55.20;;;;;;10455997;28;20208;-55
2021/11/13 03:55:18;;;;;;;6.80;6.10;;;17.20;55.40;;;;;;10453848;28;20589;-58
2021/11/13 04:00:42;;;;;;;7.33;6.37;;;17.10;55.50;;;;;;10474074;28;20239;-53
2021/11/13 04:06:04;;;;;;;6.10;5.37;;;17.10;55.50;;;;;;10481473;28;20213;-55
2021/11/13 04:11:26;;;;;;;7.00;5.93;;;17.20;55.40;;;;;;10494466;28;20193;-56
2021/11/13 04:16:49;;;;;;;7.57;5.77;;;17.20;55.50;;;;;;10488527;28;20209;-58
2021/11/13 04:22:12;;;;;;;7.03;5.87;;;17.20;55.20;;;;;;10454240;28;20208;-58
2021/11/13 04:27:34;;;;;;;6.03;5.43;;;17.20;55.10;;;;;;10494036;28;20582;-59
2021/11/13 04:32:58;;;;;;;5.97;5.33;;;17.20;55.20;;;;;;10495601;28;20704;-56
2021/11/13 04:38:20;;;;;;;6.63;5.87;;;17.20;55.40;;;;;;10466675;28;20217;-59
2021/11/13 04:43:42;;;;;;;6.77;6.07;;;17.30;55.20;;;;;;10453044;28;20201;-58
2021/11/13 04:49:06;;;;;;;6.23;5.60;;;17.30;55.10;;;;;;10452947;28;20193;-57
2021/11/13 04:54:28;;;;;;;7.07;5.37;;;17.20;55.10;;;;;;10487846;28;20212;-60
2021/11/13 04:59:50;;;;;;;5.70;4.87;;;17.20;55.40;;;;;;10492529;28;20199;-60
2021/11/13 05:05:14;;;;;;;6.43;5.80;;;17.20;55.70;;;;;;10478638;28;20220;-61
2021/11/13 05:10:36;;;;;;;7.77;5.47;;;17.10;55.90;;;;;;10490695;28;20192;-60
2021/11/13 05:15:58;;;;;;;7.13;5.87;;;17.10;56.10;;;;;;10489297;28;20299;-60
2021/11/13 05:21:22;;;;;;;6.10;5.43;;;17.10;56.30;;;;;;10487588;28;20727;-60
2021/11/13 05:26:44;;;;;;;6.10;5.50;;;17.00;56.30;;;;;;10492452;28;20678;-59
2021/11/13 05:32:07;;;;;;;6.53;5.47;;;17.00;56.20;;;;;;10492334;28;20208;-60
2021/11/13 05:37:30;;;;;;;6.33;5.73;;;17.10;56.30;;;;;;10490201;28;20597;-60
2021/11/13 05:42:54;;;;;;;6.33;4.93;;;17.20;56.60;;;;;;10492078;28;20204;-60
2021/11/13 05:48:16;;;;;;;6.30;5.17;;;17.30;56.60;;;;;;10491776;28;20219;-60
2021/11/13 05:53:40;;;;;;;7.20;4.93;;;17.30;56.40;;;;;;10491532;28;20215;-60
2021/11/13 05:59:02;;;;;;;6.60;5.90;;;17.40;55.80;;;;;;10508298;28;20203;-61
2021/11/13 06:04:24;;;;;;;6.63;5.30;;;17.40;55.40;;;;;;10501867;28;20208;-60
2021/11/13 06:09:47;;;;;;;7.07;4.60;;;17.40;55.70;;;;;;10510357;28;20203;-59
2021/11/13 06:15:12;;;;;;;6.33;4.43;;;17.40;55.90;;;;;;10512132;28;20222;-60
2021/11/13 06:20:34;;;;;;;5.23;4.73;;;17.40;56.00;;;;;;10506035;28;20779;-60
2021/11/13 06:25:57;;;;;;;6.87;5.07;;;17.40;55.90;;;;;;10508915;28;20209;-60
2021/11/13 06:31:20;;;;;;;6.03;4.83;;;17.40;55.00;;;;;;10459038;28;20197;-59
2021/11/13 06:36:42;;;;;;;5.57;4.73;;;17.50;55.10;;;;;;10455190;28;20221;-60
2021/11/13 06:42:07;;;;;;;5.67;4.83;;;17.40;55.30;;;;;;10458248;28;20272;-59
2021/11/13 06:47:29;;;;;;;6.60;5.20;;;17.40;55.60;;;;;;10456936;28;20697;-61
2021/11/13 06:52:52;;;;;;;5.47;4.37;;;17.50;55.20;;;;;;10455832;28;20655;-61
2021/11/13 06:58:15;;;;;;;5.53;4.43;;;17.50;55.60;;;;;;10456143;28;20216;-61
2021/11/13 07:03:37;;;;;;;6.10;5.00;;;17.40;55.50;;;;;;10480270;28;20199;-61
2021/11/13 07:09:00;;;;;;;6.00;4.53;;;17.50;55.40;;;;;;10498508;28;20211;-61
2021/11/13 07:14:23;;;;;;;7.20;5.47;;;17.50;55.00;;;;;;10483152;28;20216;-61
2021/11/13 07:19:45;;;;;;;5.93;4.60;;;17.50;54.80;;;;;;10496558;28;20203;-61
2021/11/13 07:25:13;;;;;;;4.30;3.90;;;17.50;55.30;;;;;;10498269;28;20209;-60
2021/11/13 07:30:40;;;;;;;5.27;4.60;;;17.50;55.50;;;;;;10513008;22;20224;-66
2021/11/13 07:36:03;;;;;;;7.73;6.60;;;17.50;55.50;;;;;;10478034;28;20639;-65
2021/11/13 07:41:25;;;;;;;6.95;6.25;;;18.20;52.80;;;;;;10444640;28;20440;-66
2021/11/13 07:46:48;;;;;;;5.97;5.22;;;18.00;53.30;;;;;;10423798;28;20421;-66
2021/11/13 07:52:11;;;;;;;9.07;8.00;;;18.30;52.50;;;;;;10455733;28;20193;-65
2021/11/13 07:57:33;;;;;;;10.13;6.80;;;17.60;52.60;;;;;;10455908;28;20213;-65
2021/11/13 08:02:57;;;;;;;7.50;6.10;;;17.40;53.00;;;;;;10454483;28;20204;-65
2021/11/13 08:08:19;;;;;;;6.53;5.33;;;17.40;53.70;;;;;;10419525;28;20213;-66
2021/11/13 08:13:42;;;;;;;6.83;5.70;;;17.40;54.10;;;;;;10435384;28;20734;-66
2021/11/13 08:19:06;;;;;;;5.70;5.10;;;17.40;54.20;;;;;;10450183;28;20274;-65
2021/11/13 08:24:28;;;;;;;6.63;4.60;;;17.50;54.40;;;;;;10431624;28;20596;-66
2021/11/13 08:29:50;;;;;;;6.10;4.57;;;17.60;54.50;;;;;;10429143;28;20691;-66
2021/11/13 08:35:15;;;;;;;5.47;4.57;;;17.60;54.50;;;;;;10453458;28;20599;-66
2021/11/13 08:40:37;;;;;;;5.57;4.33;;;17.50;54.30;;;;;;10452882;28;20216;-65
2021/11/13 08:46:00;;;;;;;3.90;3.50;;;17.60;54.30;;;;;;10450271;28;20204;-65
2021/11/13 08:51:23;;;;;;;4.83;3.87;;;17.60;54.80;;;;;;10447086;28;20208;-65
2021/11/13 08:56:45;;;;;;;4.40;3.77;;;17.50;54.80;;;;;;10452277;28;20299;-65
2021/11/13 09:02:13;;;;;;;4.53;3.30;;;17.50;55.20;;;;;;10452675;28;20272;-65
2021/11/13 09:07:38;;;;;;;4.10;3.70;;;17.50;55.50;;;;;;10449712;28;20217;-65
2021/11/13 09:13:01;;;;;;;4.90;4.17;;;17.60;56.30;;;;;;10449733;28;20228;-65
2021/11/13 09:18:23;;;;;;;4.90;4.00;;;17.60;56.50;;;;;;10451927;28;20249;-65
2021/11/13 09:23:47;;;;;;;5.53;4.13;;;17.60;56.60;;;;;;10445413;28;20197;-65
2021/11/13 09:29:09;;;;;;;4.23;3.77;;;17.60;56.90;;;;;;10451495;28;20232;-65
2021/11/13 09:34:31;;;;;;;4.20;3.73;;;17.70;56.90;;;;;;10451451;28;20220;-65
2021/11/13 09:39:54;;;;;;;3.87;3.47;;;17.70;57.00;;;;;;10449724;28;20221;-65
2021/11/13 09:45:17;;;;;;;3.47;3.17;;;17.70;57.10;;;;;;10450976;28;20188;-66
2021/11/13 09:50:40;;;;;;;4.33;3.63;;;17.70;57.10;;;;;;10438138;28;20209;-65
2021/11/13 09:56:04;;;;;;;3.97;3.57;;;17.80;57.20;;;;;;10442255;28;20283;-64
2021/11/13 10:01:27;;;;;;;4.60;3.50;;;17.80;57.20;;;;;;10409769;28;20202;-63
2021/11/13 10:06:49;;;;;;;3.90;3.40;;;17.80;57.10;;;;;;10409939;28;20624;-63
2021/11/13 10:12:13;;;;;;;5.77;4.13;;;17.70;56.90;;;;;;10449733;28;20200;-65
2021/11/13 10:17:35;;;;;;;3.87;3.40;;;17.70;56.90;;;;;;10429498;28;20224;-65
2021/11/13 10:22:57;;;;;;;3.73;3.30;;;17.70;57.10;;;;;;10448691;28;20196;-65
2021/11/13 10:28:21;;;;;;;3.83;3.10;;;17.60;57.10;;;;;;10416966;28;20248;-65
2021/11/13 10:33:44;;;;;;;4.37;3.30;;;17.60;57.20;;;;;;10444691;28;20373;-64
2021/11/13 10:39:09;;;;;;;4.43;3.43;;;17.60;57.20;;;;;;10459683;28;20618;-66
2021/11/13 10:44:36;;;;;;;3.93;3.47;;;17.50;57.10;;;;;;10454423;28;20451;-65
2021/11/13 10:50:15;;;;;;;4.13;3.60;;;17.60;57.30;;;;;;10425175;28;20216;-65
2021/11/13 10:55:39;;;;;;;3.80;3.33;;;17.50;57.30;;;;;;10415583;28;20217;-65
2021/11/13 11:01:06;;;;;;;5.00;4.40;;;17.50;57.30;;;;;;10439996;28;20224;-65
2021/11/13 11:06:37;;;;;;;4.17;3.77;;;17.60;57.00;;;;;;10428570;28;20194;-65
2021/11/13 11:12:01;;;;;;;5.10;3.67;;;17.60;57.00;;;;;;10453797;28;20182;-65
2021/11/13 11:17:27;;;;;;;4.77;4.13;;;17.70;56.90;;;;;;10413691;28;20218;-65
2021/11/13 11:22:49;;;;;;;4.30;3.23;;;17.70;56.70;;;;;;10420323;28;20204;-64
2021/11/13 11:28:11;;;;;;;3.63;3.23;;;17.70;56.70;;;;;;10419705;28;20578;-64
2021/11/13 11:33:39;;;;;;;6.30;4.07;;;17.70;56.60;;;;;;10415170;28;20193;-64
2021/11/13 11:39:02;;;;;;;5.57;3.70;;;17.80;56.70;;;;;;10414791;28;20209;-64
2021/11/13 11:44:24;;;;;;;4.30;3.77;;;17.70;56.60;;;;;;10416213;28;20202;-65
2021/11/13 11:49:50;;;;;;;4.20;3.23;;;17.70;56.60;;;;;;10429916;28;20224;-65
2021/11/13 11:55:14;;;;;;;4.73;3.90;;;17.70;56.30;;;;;;10413684;28;20205;-64
2021/11/13 12:00:38;;;;;;;5.20;3.87;;;17.70;56.60;;;;;;10412792;28;20593;-66
2021/11/13 12:06:02;;;;;;;4.17;3.63;;;17.70;56.70;;;;;;10450884;28;20189;-65
2021/11/13 12:11:26;;;;;;;5.17;4.43;;;17.70;56.70;;;;;;10454605;28;20201;-65
2021/11/13 12:16:48;;;;;;;5.10;4.60;;;17.70;56.60;;;;;;10454074;28;20213;-65
2021/11/13 12:22:12;;;;;;;7.07;4.60;;;17.70;56.30;;;;;;10448985;28;20205;-64
2021/11/13 12:27:34;;;;;;;6.17;4.93;;;17.70;56.40;;;;;;10453678;28;20695;-65
2021/11/13 12:32:56;;;;;;;5.37;4.57;;;17.70;56.50;;;;;;10425543;28;20293;-63
2021/11/13 12:38:37;;;;;;;6.13;4.73;;;17.60;56.70;;;;;;10440091;28;20232;-65
2021/11/13 12:44:08;;;;;;;5.70;4.10;;;17.60;56.90;;;;;;10453958;28;20193;-66
2021/11/13 12:49:37;;;;;;;6.30;4.37;;;17.60;57.00;;;;;;10445802;28;20201;-64
2021/11/13 12:55:24;;;;;;;6.33;4.40;;;17.60;57.20;;;;;;10441461;28;20244;-65
2021/11/13 13:00:50;;;;;;;4.93;3.77;;;17.50;57.50;;;;;;10405427;28;20229;-65
2021/11/13 13:06:12;;;;;;;6.17;4.33;;;17.60;57.80;;;;;;10415057;28;20189;-65
2021/11/13 13:11:45;;;;;;;4.83;4.17;;;17.50;57.90;;;;;;10440422;28;20193;-65
2021/11/13 13:17:07;;;;;;;5.20;4.40;;;17.50;58.00;;;;;;10445161;28;20244;-66
2021/11/13 13:22:30;;;;;;;6.70;4.00;;;17.40;58.10;;;;;;10437888;28;20190;-65
2021/11/13 13:27:58;;;;;;;4.20;3.80;;;17.50;58.10;;;;;;10404474;28;20226;-65
2021/11/13 13:33:22;;;;;;;4.43;3.47;;;17.60;58.30;;;;;;10440300;22;20228;-63
2021/11/13 13:38:44;;;;;;;4.00;3.37;;;17.60;58.30;;;;;;10441962;28;20297;-64
2021/11/13 13:44:08;;;;;;;4.77;3.80;;;17.60;58.10;;;;;;10443622;28;20205;-64
2021/11/13 13:49:31;;;;;;;3.90;3.50;;;17.70;57.80;;;;;;10444256;28;20203;-64
2021/11/13 13:54:53;;;;;;;4.70;3.77;;;17.70;57.80;;;;;;10444952;28;20216;-64
2021/11/13 14:00:18;;;;;;;3.67;3.03;;;17.70;57.90;;;;;;10444035;28;20201;-64
2021/11/13 14:05:41;;;;;;;3.57;3.17;;;17.70;58.00;;;;;;10443947;28;20303;-64
2021/11/13 14:11:04;;;;;;;5.40;3.80;;;17.70;58.00;;;;;;10441573;28;20213;-64
2021/11/13 14:16:32;;;;;;;4.73;3.97;;;17.80;57.70;;;;;;10425236;28;20336;-64
2021/11/13 14:22:03;;;;;;;5.07;3.67;;;17.80;57.50;;;;;;10433267;28;20201;-64
2021/11/13 14:27:26;;;;;;;4.90;3.43;;;17.80;57.50;;;;;;10397719;28;20225;-64
2021/11/13 14:32:58;;;;;;;5.90;3.97;;;17.80;58.30;;;;;;10404196;28;20209;-64
2021/11/13 14:38:20;;;;;;;4.23;3.63;;;17.80;57.70;;;;;;10438467;28;20789;-64
2021/11/13 14:43:43;;;;;;;6.43;3.83;;;17.80;57.80;;;;;;10442068;28;20197;-64
2021/11/13 14:49:06;;;;;;;3.83;3.40;;;17.70;57.70;;;;;;10442404;28;20201;-64
2021/11/13 14:54:28;;;;;;;5.93;3.80;;;17.80;57.90;;;;;;10443892;28;20251;-63
2021/11/13 14:59:54;;;;;;;6.60;4.53;;;17.80;58.10;;;;;;10446259;28;20198;-63
2021/11/13 15:05:25;;;;;;;6.07;4.77;;;17.80;58.10;;;;;;10451684;28;20785;-63
2021/11/13 15:10:48;;;;;;;5.67;4.47;;;17.80;57.70;;;;;;10441506;28;20440;-64
2021/11/13 15:16:14;;;;;;;5.50;4.03;;;17.80;57.70;;;;;;10447256;28;20231;-63
2021/11/13 15:21:42;;;;;;;6.07;3.90;;;17.80;58.00;;;;;;10448077;28;20685;-64
2021/11/13 15:27:16;;;;;;;6.97;4.73;;;17.80;58.20;;;;;;10406457;28;20225;-64
2021/11/13 15:32:38;;;;;;;6.93;5.20;;;17.80;57.90;;;;;;10406248;28;20233;-65
2021/11/13 15:38:14;;;;;;;5.40;4.27;;;17.80;57.90;;;;;;10446764;28;20733;-66
2021/11/13 15:43:37;;;;;;;5.80;4.33;;;17.80;58.10;;;;;;10447976;28;20711;-66
2021/11/13 15:49:01;;;;;;;6.37;4.33;;;17.80;58.20;;;;;;10447947;28;20216;-65
2021/11/13 15:54:24;;;;;;;6.27;4.80;;;17.80;58.20;;;;;;10448022;28;20217;-65
2021/11/13 15:59:47;;;;;;;7.43;4.37;;;17.80;57.90;;;;;;10447719;28;20228;-65
2021/11/13 16:05:10;;;;;;;5.80;4.10;;;17.80;58.10;;;;;;10448261;28;20686;-65
2021/11/13 16:10:34;;;;;;;7.10;5.00;;;17.80;58.30;;;;;;10446756;28;20201;-65
2021/11/13 16:15:57;;;;;;;5.90;4.50;;;17.80;58.00;;;;;;10447477;28;20224;-65
2021/11/13 16:21:20;;;;;;;5.83;4.60;;;17.80;57.90;;;;;;10414543;28;20262;-65
2021/11/13 16:26:44;;;;;;;8.53;4.83;;;17.80;58.10;;;;;;10406365;28;20214;-64
2021/11/13 16:32:07;;;;;;;6.20;5.30;;;17.80;58.40;;;;;;10402540;28;20521;-67
2021/11/13 16:38:08;;;;;;;5.33;4.50;;;18.60;55.60;;;;;;10406064;28;20229;-67
2021/11/13 16:43:35;;;;;;;11.43;5.32;;;18.10;57.10;;;;;;10403735;28;20436;-66
2021/11/13 16:48:57;;;;;;;6.30;5.00;;;18.40;56.70;;;;;;10405660;28;20217;-67
2021/11/13 16:54:21;;;;;;;6.27;4.60;;;18.10;57.30;;;;;;10405488;28;20236;-67
2021/11/13 16:59:44;;;;;;;5.67;4.33;;;17.90;57.80;;;;;;10420119;28;20225;-66
2021/11/13 17:05:07;;;;;;;6.10;4.73;;;17.90;58.30;;;;;;10442158;28;20220;-64
2021/11/13 17:10:29;;;;;;;5.43;4.37;;;17.90;58.40;;;;;;10444011;28;20682;-65
2021/11/13 17:15:53;;;;;;;6.23;4.77;;;17.80;58.40;;;;;;10445284;28;20594;-66
2021/11/13 17:21:16;;;;;;;7.60;5.40;;;17.80;58.20;;;;;;10444648;28;20212;-66
2021/11/13 17:26:38;;;;;;;7.30;5.57;;;17.80;58.30;;;;;;10443264;28;20209;-67
2021/11/13 17:32:02;;;;;;;6.63;5.30;;;17.80;58.50;;;;;;10442515;28;20227;-66
2021/11/13 17:37:24;;;;;;;6.07;5.27;;;17.80;58.60;;;;;;10444677;28;20221;-66
2021/11/13 17:42:47;;;;;;;11.23;5.97;;;17.80;58.30;;;;;;10445055;28;20208;-65
2021/11/13 17:48:11;;;;;;;6.97;5.77;;;17.80;58.00;;;;;;10444089;28;20213;-66
2021/11/13 17:53:33;;;;;;;7.30;5.17;;;17.80;58.10;;;;;;10445582;28;20193;-66
2021/11/13 17:58:56;;;;;;;8.20;5.40;;;17.80;58.30;;;;;;10445974;28;20217;-65
2021/11/13 18:04:21;;;;;;;9.40;6.13;;;17.80;58.40;;;;;;10408543;28;20229;-67
2021/11/13 18:09:43;;;;;;;9.47;7.00;;;17.80;58.40;;;;;;10441740;28;20287;-66
2021/11/13 18:15:08;;;;;;;6.70;5.13;;;17.80;58.20;;;;;;10438849;28;20654;-66
2021/11/13 18:20:32;;;;;;;10.13;5.70;;;17.80;58.30;;;;;;10410246;28;20574;-66
2021/11/13 18:25:54;;;;;;;7.83;5.17;;;17.80;58.50;;;;;;10414941;28;20463;-66
2021/11/13 18:31:16;;;;;;;6.93;5.13;;;17.80;58.60;;;;;;10405449;28;20214;-64
2021/11/13 18:36:39;;;;;;;9.30;6.00;;;17.80;58.20;;;;;;10416669;28;20252;-65
2021/11/13 18:42:02;;;;;;;6.93;4.90;;;17.80;58.00;;;;;;10415328;28;20201;-66
2021/11/13 18:47:24;;;;;;;8.63;5.40;;;17.80;58.20;;;;;;10416860;28;20209;-65
2021/11/13 18:52:48;;;;;;;8.60;5.53;;;17.80;58.30;;;;;;10416212;28;20201;-66
2021/11/13 18:58:11;;;;;;;8.70;5.60;;;17.80;58.20;;;;;;10424879;28;20221;-66
2021/11/13 19:03:33;;;;;;;10.30;5.60;;;17.80;57.90;;;;;;10411646;28;20198;-66
2021/11/13 19:08:57;;;;;;;6.10;4.70;;;17.80;58.00;;;;;;10409497;28;20217;-66
2021/11/13 19:14:19;;;;;;;8.40;6.30;;;17.80;58.20;;;;;;10429019;28;20435;-66
2021/11/13 19:19:42;;;;;;;9.73;6.03;;;18.10;57.50;;;;;;10448843;28;20221;-65
2021/11/13 19:25:09;;;;;;;10.07;6.60;;;18.00;57.60;;;;;;10448274;28;20220;-66
2021/11/13 19:30:31;;;;;;;9.07;6.00;;;17.90;57.90;;;;;;10449599;28;20208;-66
2021/11/13 19:35:54;;;;;;;8.83;6.37;;;17.80;58.20;;;;;;10450449;28;20221;-66
2021/11/13 19:41:17;;;;;;;7.80;5.90;;;17.80;58.40;;;;;;10436252;28;20204;-66
2021/11/13 19:46:40;;;;;;;9.97;6.40;;;17.80;58.60;;;;;;10445103;28;20208;-66
2021/11/13 19:52:03;;;;;;;6.97;5.37;;;17.80;58.80;;;;;;10442969;28;20197;-66
2021/11/13 19:57:28;;;;;;;7.17;5.30;;;17.80;58.90;;;;;;10444713;28;20225;-66
2021/11/13 20:02:51;;;;;;;12.33;7.13;;;17.80;58.80;;;;;;10449567;28;20682;-66
2021/11/13 20:08:13;;;;;;;10.00;6.00;;;17.80;58.60;;;;;;10448876;28;20208;-66
2021/11/13 20:13:38;;;;;;;9.57;6.57;;;17.80;58.70;;;;;;10458266;28;20662;-66
2021/11/13 20:19:00;;;;;;;10.30;6.57;;;17.70;58.80;;;;;;10467679;28;20221;-65
2021/11/13 20:24:22;;;;;;;9.77;6.67;;;17.70;58.90;;;;;;10463928;28;20220;-65
2021/11/13 20:29:46;;;;;;;12.00;7.67;;;17.70;58.90;;;;;;10466720;28;20646;-66
2021/11/13 20:35:11;;;;;;;11.40;7.53;;;17.70;58.60;;;;;;10462696;28;20228;-65
2021/11/13 20:40:33;;;;;;;16.63;10.40;;;17.70;58.60;;;;;;10503427;22;20220;-68
2021/11/13 20:45:59;;;;;;;12.67;8.43;;;17.70;58.50;;;;;;10475659;28;20189;-67
2021/11/13 20:51:22;;;;;;;15.47;9.03;;;17.70;58.60;;;;;;10498148;28;20587;-68
2021/11/13 20:56:44;;;;;;;11.13;8.17;;;17.70;58.80;;;;;;10504807;28;20212;-68
2021/11/13 21:02:08;;;;;;;13.43;8.60;;;17.70;58.80;;;;;;10510763;28;20220;-68
2021/11/13 21:07:30;;;;;;;12.30;7.87;;;17.60;58.60;;;;;;10513237;28;20223;-68
2021/11/13 21:12:53;;;;;;;13.63;7.80;;;17.60;58.80;;;;;;10513333;28;20682;-68
2021/11/13 21:18:19;;;;;;;11.27;7.33;;;17.60;58.90;;;;;;10500001;28;20227;-68
2021/11/13 21:23:41;;;;;;;11.43;7.43;;;17.70;58.90;;;;;;10500457;28;20199;-68
2021/11/13 21:29:04;;;;;;;13.13;8.47;;;17.70;58.80;;;;;;10511791;28;20694;-68
2021/11/13 21:34:28;;;;;;;10.93;7.37;;;17.60;58.90;;;;;;10513462;28;20227;-67
2021/11/13 21:39:50;;;;;;;16.70;9.30;;;17.60;58.90;;;;;;10482832;28;20228;-67
2021/11/13 21:45:15;;;;;;;14.43;9.07;;;17.60;58.70;;;;;;10482915;28;20192;-67
2021/11/13 21:50:41;;;;;;;13.03;8.27;;;17.60;58.80;;;;;;10480466;28;20221;-67
2021/11/13 21:56:04;;;;;;;12.53;8.37;;;17.50;59.40;;;;;;10483905;28;20203;-67
2021/11/13 22:01:26;;;;;;;13.47;8.30;;;17.50;59.10;;;;;;10479704;28;20228;-68
2021/11/13 22:06:50;;;;;;;13.40;8.73;;;17.50;59.30;;;;;;10478680;28;20201;-67
2021/11/13 22:12:13;;;;;;;12.43;8.20;;;17.40;59.50;;;;;;10490896;28;20942;-68
2021/11/13 22:17:37;;;;;;;12.63;8.37;;;17.40;59.50;;;;;;10516096;28;20465;-68
2021/11/13 22:23:03;;;;;;;15.77;9.53;;;17.50;59.60;;;;;;10501534;28;20354;-65
2021/11/13 22:28:26;;;;;;;13.33;8.33;;;17.40;59.50;;;;;;10500723;28;20209;-68
2021/11/13 22:33:48;;;;;;;12.93;8.30;;;17.40;59.70;;;;;;10461412;28;20197;-68
2021/11/13 22:39:12;;;;;;;12.40;7.93;;;17.30;59.80;;;;;;10463651;28;20217;-66
2021/11/13 22:44:34;;;;;;;14.37;8.83;;;17.30;59.90;;;;;;10458377;28;20204;-67
2021/11/13 22:49:56;;;;;;;12.67;7.73;;;17.30;60.00;;;;;;10462813;28;20691;-67
2021/11/13 22:55:20;;;;;;;15.63;9.80;;;17.40;60.10;;;;;;10499960;28;20204;-68
2021/11/13 23:01:12;;;;;;;14.40;9.20;;;17.40;59.80;;;;;;10494681;28;20224;-68
2021/11/13 23:06:35;;;;;;;13.07;8.13;;;17.40;59.70;;;;;;10497362;28;20196;-68
2021/11/13 23:11:59;;;;;;;13.73;8.43;;;17.30;59.80;;;;;;10493103;28;20287;-68
2021/11/13 23:17:21;;;;;;;12.87;8.50;;;17.30;59.90;;;;;;10498305;28;20349;-68
2021/11/13 23:22:43;;;;;;;12.73;8.10;;;17.30;60.10;;;;;;10494084;28;20197;-68
2021/11/13 23:28:07;;;;;;;15.70;9.17;;;17.30;60.20;;;;;;10496770;28;20747;-68
2021/11/13 23:33:30;;;;;;;16.60;10.00;;;17.40;60.10;;;;;;10498095;28;20204;-68
2021/11/13 23:38:52;;;;;;;15.87;9.37;;;17.40;60.00;;;;;;10498117;28;20229;-68
2021/11/13 23:44:17;;;;;;;15.73;9.40;;;17.40;60.00;;;;;;10498253;28;20203;-68
2021/11/13 23:49:39;;;;;;;13.20;8.70;;;17.30;60.00;;;;;;10497392;28;20215;-68
2021/11/13 23:55:02;;;;;;;15.43;8.80;;;17.30;60.20;;;;;;10484069;28;20695;-67
